D/T METAR WX W/DIR W/SPE G/SPE TEMP DEWP
16/01/19 02:50 EGMC 160250Z 22011KT 9999 SCT011 BKN020 09/06 Q1011 SW (220°) 12.7mph 9°C 6°C
16/01/19 01:20 EGMC 160120Z 22011KT 9999 BKN030 08/05 Q1012 SW (220°) 12.7mph 8°C 5°C
15/01/19 23:50 EGMC 152350Z 23010KT 9999 BKN031 08/05 Q1013 SW (230°) 11.5mph 8°C 5°C
15/01/19 22:50 EGMC 152250Z 23012KT 9999 BKN026 08/04 Q1014 SW (230°) 13.8mph 8°C 4°C
15/01/19 21:50 EGMC 152150Z 23011KT 9999 BKN032 08/04 Q1014 SW (230°) 12.7mph 8°C 4°C
15/01/19 21:20 EGMC 152120Z 23013KT 9999 BKN031 08/04 Q1015 SW (230°) 15.0mph 8°C 4°C
15/01/19 20:20 EGMC 152020Z 24010KT 9999 FEW028 SCT034 08/05 Q1015 WSW (240°) 11.5mph 8°C 5°C
15/01/19 19:50 EGMC 151950Z 23012KT 9999 FEW028 BKN035 08/04 Q1015 SW (230°) 13.8mph 8°C 4°C
15/01/19 19:20 EGMC 151920Z 23010KT 9999 FEW028 BKN033 08/05 Q1015 SW (230°) 11.5mph 8°C 5°C
15/01/19 18:50 EGMC 151850Z 22009KT 9999 FEW028 BKN034 08/05 Q1016 SW (220°) 10.4mph 8°C 5°C
15/01/19 18:20 EGMC 151820Z 22010KT 9999 FEW022 BKN034 09/05 Q1016 SW (220°) 11.5mph 9°C 5°C
15/01/19 17:50 EGMC 151750Z 22009KT 9999 FEW023 BKN035 08/05 Q1016 SW (220°) 10.4mph 8°C 5°C
15/01/19 17:20 EGMC 151720Z 22010KT 9999 SCT020 BKN037 08/05 Q1016 SW (220°) 11.5mph 8°C 5°C
15/01/19 16:50 EGMC 151650Z 22009KT 9999 FEW023 BKN038 08/05 Q1016 SW (220°) 10.4mph 8°C 5°C
15/01/19 16:20 EGMC 151620Z 23010KT 9999 FEW025 BKN037 08/05 Q1017 SW (230°) 11.5mph 8°C 5°C
15/01/19 15:20 EGMC 151520Z 23012KT 9999 FEW024 BKN028 09/05 Q1017 SW (230°) 13.8mph 9°C 5°C
15/01/19 14:50 EGMC 151450Z 24010KT 9999 SCT019 BKN027 09/05 Q1017 WSW (240°) 11.5mph 9°C 5°C
15/01/19 14:20 EGMC 151420Z 23009KT 9999 SCT017 BKN023 10/06 Q1018 SW (230°) 10.4mph 10°C 6°C
15/01/19 13:20 EGMC 151320Z 24011KT 9999 FEW020 OVC036 09/05 Q1018 WSW (240°) 12.7mph 9°C 5°C
15/01/19 12:50 EGMC 151250Z 24013KT 9999 FEW023 OVC035 09/04 Q1018 WSW (240°) 15.0mph 9°C 4°C
15/01/19 12:20 EGMC 151220Z 24011KT 9999 BKN035 09/04 Q1019 WSW (240°) 12.7mph 9°C 4°C
15/01/19 11:50 EGMC 151150Z 24009KT 9999 BKN034 08/04 Q1019 WSW (240°) 10.4mph 8°C 4°C
15/01/19 11:20 EGMC 151120Z 22010KT 9999 BKN036 07/03 Q1019 SW (220°) 11.5mph 7°C 3°C
15/01/19 10:50 EGMC 151050Z 22011KT 9999 BKN034 07/03 Q1019 SW (220°) 12.7mph 7°C 3°C
15/01/19 09:50 EGMC 150950Z 23011KT 9999 BKN034 06/03 Q1020 SW (230°) 12.7mph 6°C 3°C
15/01/19 09:20 EGMC 150920Z 23011KT 9999 BKN031 05/02 Q1020 SW (230°) 12.7mph 5°C 2°C
15/01/19 08:50 EGMC 150850Z 23010KT 9999 BKN030 06/03 Q1020 SW (230°) 11.5mph 6°C 3°C
15/01/19 08:20 EGMC 150820Z 25008KT 9999 BKN031 05/02 Q1020 WSW (250°) 9.2mph 5°C 2°C
15/01/19 07:50 EGMC 150750Z 25008KT 9999 BKN028 05/02 Q1020 WSW (250°) 9.2mph 5°C 2°C
15/01/19 07:20 EGMC 150720Z 25010KT 9999 BKN033 05/01 Q1020 WSW (250°) 11.5mph 5°C 1°C
15/01/19 06:20 EGMC 150620Z 24010KT 9999 FEW041 BKN048 02/M01 Q1020 WSW (240°) 11.5mph 2°C -1°C
15/01/19 05:50 EGMC 150550Z 24009KT 9999 BKN037 04/00 Q1020 WSW (240°) 10.4mph 4°C 0°C
15/01/19 04:50 EGMC 150450Z 24009KT CAVOK 03/00 Q1020 WSW (240°) 10.4mph 3°C 0°C
15/01/19 03:50 EGMC 150350Z 24007KT CAVOK 03/00 Q1021 WSW (240°) 8.1mph 3°C 0°C
15/01/19 02:50 EGMC 150250Z 24007KT CAVOK 03/00 Q1022 WSW (240°) 8.1mph 3°C 0°C
15/01/19 01:50 EGMC 150150Z 26006KT CAVOK 04/01 Q1022 W (260°) 6.9mph 4°C 1°C
15/01/19 00:50 EGMC 150050Z 26006KT CAVOK 04/01 Q1022 W (260°) 6.9mph 4°C 1°C
14/01/19 23:20 EGMC 142320Z 26006KT 9999 SCT046 05/01 Q1022 W (260°) 6.9mph 5°C 1°C
14/01/19 22:50 EGMC 142250Z 26006KT CAVOK 05/01 Q1022 W (260°) 6.9mph 5°C 1°C
14/01/19 22:20 EGMC 142220Z 26006KT 9999 BKN049 07/02 Q1022 W (260°) 6.9mph 7°C 2°C
14/01/19 21:50 EGMC 142150Z 26006KT 9999 BKN049 07/02 Q1022 W (260°) 6.9mph 7°C 2°C
14/01/19 21:20 EGMC 142120Z 26006KT CAVOK 06/02 Q1022 W (260°) 6.9mph 6°C 2°C
14/01/19 20:50 EGMC 142050Z 26006KT CAVOK 06/02 Q1022 W (260°) 6.9mph 6°C 2°C
14/01/19 20:20 EGMC 142020Z 26007KT CAVOK 06/02 Q1022 W (260°) 8.1mph 6°C 2°C
14/01/19 19:50 EGMC 141950Z 26007KT CAVOK 06/02 Q1022 W (260°) 8.1mph 6°C 2°C
14/01/19 19:20 EGMC 141920Z 26006KT CAVOK 07/03 Q1022 W (260°) 6.9mph 7°C 3°C
14/01/19 18:50 EGMC 141850Z 24003KT CAVOK 05/03 Q1022 WSW (240°) 3.5mph 5°C 3°C
14/01/19 18:20 EGMC 141820Z VRB02KT 9999 FEW048 06/03 Q1022 N (0°) 2.3mph 6°C 3°C
14/01/19 17:50 EGMC 141750Z VRB02KT 9999 SCT028 BKN048 07/04 Q1022 N (0°) 2.3mph 7°C 4°C
14/01/19 17:20 EGMC 141720Z 02004KT 350V050 9999 FEW027 SCT033 07/04 Q1022 NNE (20°) 4.6mph 7°C 4°C
14/01/19 16:50 EGMC 141650Z 33003KT 9999 FEW031 SCT045 07/03 Q1022 NNW (330°) 3.5mph 7°C 3°C
14/01/19 16:20 EGMC 141620Z VRB02KT 9999 FEW031 07/03 Q1022 N (0°) 2.3mph 7°C 3°C
14/01/19 15:50 EGMC 141550Z 32003KT 9999 FEW034 SCT048 08/04 Q1021 NW (320°) 3.5mph 8°C 4°C
14/01/19 15:20 EGMC 141520Z 31003KT 9999 FEW032 SCT048 08/04 Q1021 NW (310°) 3.5mph 8°C 4°C
14/01/19 14:50 EGMC 141450Z 32003KT 9999 FEW026 SCT045 07/03 Q1021 NW (320°) 3.5mph 7°C 3°C
14/01/19 13:50 EGMC 141350Z 32008KT 9999 VCSH FEW026 SCT033 08/04 Q1020 VCSH NW (320°) 9.2mph 8°C 4°C
14/01/19 13:20 EGMC 141320Z 31008KT 280V340 9999 VCSH FEW024 SCT042 08/04 Q1020 VCSH NW (310°) 9.2mph 8°C 4°C
14/01/19 12:20 EGMC 141220Z 32008KT 290V350 9999 FEW021 SCT037 08/04 Q1020 NW (320°) 9.2mph 8°C 4°C
14/01/19 11:50 EGMC 141150Z 31010KT 9999 FEW023 SCT040 08/04 Q1020 NW (310°) 11.5mph 8°C 4°C
14/01/19 11:20 EGMC 141120Z 31011KT 270V340 9999 FEW035 SCT040 08/04 Q1020 NW (310°) 12.7mph 8°C 4°C
14/01/19 10:50 EGMC 141050Z 31008KT 270V330 9999 SCT040 08/03 Q1020 NW (310°) 9.2mph 8°C 3°C
14/01/19 10:20 EGMC 141020Z 31009KT 9999 SCT040 08/04 Q1019 NW (310°) 10.4mph 8°C 4°C
14/01/19 09:50 EGMC 140950Z 30009KT 9999 SCT038 07/03 Q1019 WNW (300°) 10.4mph 7°C 3°C
14/01/19 09:20 EGMC 140920Z 30009KT 9999 FEW038 07/03 Q1019 WNW (300°) 10.4mph 7°C 3°C
14/01/19 08:20 EGMC 140820Z 30009KT CAVOK 06/02 Q1018 WNW (300°) 10.4mph 6°C 2°C
14/01/19 07:50 EGMC 140750Z 31010KT 9999 FEW045 06/02 Q1018 NW (310°) 11.5mph 6°C 2°C
14/01/19 07:20 EGMC 140720Z 30011KT 270V330 9999 FEW045 06/02 Q1017 WNW (300°) 12.7mph 6°C 2°C
14/01/19 06:50 EGMC 140650Z 30010KT 9999 FEW045 07/03 Q1017 WNW (300°) 11.5mph 7°C 3°C
14/01/19 06:20 EGMC 140620Z 30011KT 9999 FEW045 07/03 Q1017 WNW (300°) 12.7mph 7°C 3°C
14/01/19 05:50 EGMC 140550Z 29011KT 9999 SCT045 07/03 Q1017 WNW (290°) 12.7mph 7°C 3°C
14/01/19 05:20 EGMC 140520Z 30011KT 9999 BKN045 07/02 Q1016 WNW (300°) 12.7mph 7°C 2°C
14/01/19 04:50 EGMC 140450Z 30009KT 9999 BKN045 07/02 Q1016 WNW (300°) 10.4mph 7°C 2°C
14/01/19 03:50 EGMC 140350Z 29011G22KT 9999 FEW045 07/02 Q1015 WNW (290°) 12.7mph 25.3mph 7°C 2°C
14/01/19 02:50 EGMC 140250Z 29014KT 9999 FEW045 07/02 Q1014 WNW (290°) 16.1mph 7°C 2°C
14/01/19 00:50 EGMC 140050Z 29012G22KT 9999 FEW047 08/02 Q1013 WNW (290°) 13.8mph 25.3mph 8°C 2°C
13/01/19 23:50 EGMC 132350Z 29013G23KT 9999 FEW047 08/02 Q1012 WNW (290°) 15.0mph 26.5mph 8°C 2°C
13/01/19 23:20 EGMC 132320Z 29014G24KT 9999 FEW047 08/02 Q1012 WNW (290°) 16.1mph 27.6mph 8°C 2°C
13/01/19 22:50 EGMC 132250Z 29012G22KT 9999 FEW047 08/01 Q1012 WNW (290°) 13.8mph 25.3mph 8°C 1°C
13/01/19 21:50 EGMC 132150Z 30013KT 9999 FEW047 08/02 Q1012 WNW (300°) 15.0mph 8°C 2°C
13/01/19 21:20 EGMC 132120Z 31014G24KT 9999 FEW047 09/03 Q1011 NW (310°) 16.1mph 27.6mph 9°C 3°C
13/01/19 20:50 EGMC 132050Z 31016G28KT 9999 FEW047 09/03 Q1011 NW (310°) 18.4mph 32.2mph 9°C 3°C
13/01/19 20:20 EGMC 132020Z 31019G30KT 9999 FEW032 BKN039 10/04 Q1011 NW (310°) 21.9mph 34.5mph 10°C 4°C
13/01/19 19:50 EGMC 131950Z 31019G29KT 9999 FEW032 BKN039 12/06 Q1010 NW (310°) 21.9mph 33.4mph 12°C 6°C
13/01/19 19:20 EGMC 131920Z 29010KT 9999 FEW037 BKN048 10/05 Q1010 WNW (290°) 11.5mph 10°C 5°C
13/01/19 18:50 EGMC 131850Z 29012KT 9999 FEW024 BKN035 11/06 Q1009 WNW (290°) 13.8mph 11°C 6°C
13/01/19 18:20 EGMC 131820Z 28011KT 9999 BKN034 11/06 Q1009 W (280°) 12.7mph 11°C 6°C
13/01/19 17:50 EGMC 131750Z 27013KT 9999 SCT024 BKN046 11/07 Q1009 W (270°) 15.0mph 11°C 7°C
13/01/19 17:20 EGMC 131720Z 27014KT 9999 SCT022 BKN048 11/07 Q1009 W (270°) 16.1mph 11°C 7°C
13/01/19 16:50 EGMC 131650Z 27015KT 9999 SCT022 BKN048 11/07 Q1009 W (270°) 17.3mph 11°C 7°C
13/01/19 15:50 EGMC 131550Z 28016KT 9999 FEW020 BKN024 11/07 Q1009 W (280°) 18.4mph 11°C 7°C
13/01/19 15:20 EGMC 131520Z 27021KT 9999 SCT024 12/07 Q1009 W (270°) 24.2mph 12°C 7°C
13/01/19 14:50 EGMC 131450Z 27021KT 9999 SCT026 12/07 Q1009 W (270°) 24.2mph 12°C 7°C
13/01/19 14:20 EGMC 131420Z 28018KT 9999 BKN026 12/06 Q1009 W (280°) 20.7mph 12°C 6°C
13/01/19 13:50 EGMC 131350Z 27017G27KT 9999 FEW023 11/06 Q1009 W (270°) 19.6mph 31.1mph 11°C 6°C
13/01/19 13:20 EGMC 131320Z 27018KT 9999 FEW023 11/06 Q1009 W (270°) 20.7mph 11°C 6°C
13/01/19 12:50 EGMC 131250Z 27018KT 9999 SCT023 11/06 Q1010 W (270°) 20.7mph 11°C 6°C
13/01/19 11:50 EGMC 131150Z 27019G29KT 9999 FEW018 11/06 Q1010 W (270°) 21.9mph 33.4mph 11°C 6°C
13/01/19 10:50 EGMC 131050Z 27018KT CAVOK 10/05 Q1011 W (270°) 20.7mph 10°C 5°C
13/01/19 10:20 EGMC 131020Z 26019KT 9999 FEW035 10/06 Q1011 W (260°) 21.9mph 10°C 6°C
13/01/19 09:50 EGMC 130950Z 27019KT 9999 FEW030 09/05 Q1011 W (270°) 21.9mph 9°C 5°C
13/01/19 09:20 EGMC 130920Z 27016KT 9999 FEW030 10/06 Q1012 W (270°) 18.4mph 10°C 6°C
13/01/19 08:50 EGMC 130850Z 27013KT 9999 FEW030 10/06 Q1012 W (270°) 15.0mph 10°C 6°C
13/01/19 08:20 EGMC 130820Z 27011KT 9999 FEW023 10/06 Q1013 W (270°) 12.7mph 10°C 6°C
13/01/19 07:50 EGMC 130750Z 27011KT 9999 FEW023 10/06 Q1013 W (270°) 12.7mph 10°C 6°C
13/01/19 07:20 EGMC 130720Z 26013KT 9999 FEW022 10/07 Q1013 W (260°) 15.0mph 10°C 7°C
13/01/19 06:50 EGMC 130650Z 27014KT 9999 FEW024 10/06 Q1013 W (270°) 16.1mph 10°C 6°C
13/01/19 06:20 EGMC 130620Z 26013KT CAVOK 10/06 Q1013 W (260°) 15.0mph 10°C 6°C
13/01/19 05:20 EGMC 130520Z 27017G27KT 9999 FEW023 11/07 Q1013 W (270°) 19.6mph 31.1mph 11°C 7°C
13/01/19 04:50 EGMC 130450Z 27018G28KT 9999 FEW023 11/07 Q1013 W (270°) 20.7mph 32.2mph 11°C 7°C
13/01/19 03:50 EGMC 130350Z 29013G23KT 9999 SCT023 10/06 Q1014 WNW (290°) 15.0mph 26.5mph 10°C 6°C
13/01/19 02:50 EGMC 130250Z 29013G23KT 9999 SCT023 10/06 Q1015 WNW (290°) 15.0mph 26.5mph 10°C 6°C
13/01/19 00:50 EGMC 130050Z 29014G24KT 9999 BKN023 10/06 Q1016 WNW (290°) 16.1mph 27.6mph 10°C 6°C
12/01/19 23:50 EGMC 122350Z 28012KT 9999 BKN023 10/06 Q1017 W (280°) 13.8mph 10°C 6°C
12/01/19 23:20 EGMC 122320Z 28012KT 9999 BKN020 10/06 Q1017 W (280°) 13.8mph 10°C 6°C
12/01/19 22:20 EGMC 122220Z 27013KT 9999 BKN020 10/06 Q1017 W (270°) 15.0mph 10°C 6°C
12/01/19 21:50 EGMC 122150Z 27013KT 9999 BKN020 10/06 Q1017 W (270°) 15.0mph 10°C 6°C
12/01/19 21:20 EGMC 122120Z 27014KT 9999 FEW015 BKN020 09/05 Q1018 W (270°) 16.1mph 9°C 5°C
12/01/19 20:50 EGMC 122050Z 26014KT 9999 FEW015 BKN023 08/04 Q1017 W (260°) 16.1mph 8°C 4°C
12/01/19 20:20 EGMC 122020Z 26014KT 9999 FEW015 BKN023 08/04 Q1018 W (260°) 16.1mph 8°C 4°C
12/01/19 19:50 EGMC 121950Z 27013KT 9999 FEW015 BKN023 09/04 Q1018 W (270°) 15.0mph 9°C 4°C
12/01/19 19:20 EGMC 121920Z 27012KT 9999 FEW015 BKN024 09/05 Q1018 W (270°) 13.8mph 9°C 5°C
12/01/19 18:50 EGMC 121850Z 27014KT 9999 FEW015 BKN028 09/05 Q1018 W (270°) 16.1mph 9°C 5°C
12/01/19 18:20 EGMC 121820Z 28013KT 9999 FEW015 SCT021 BKN043 09/05 Q1018 W (280°) 15.0mph 9°C 5°C
12/01/19 17:50 EGMC 121750Z 27013KT 9999 FEW020 SCT043 09/05 Q1018 W (270°) 15.0mph 9°C 5°C
12/01/19 17:20 EGMC 121720Z 28011KT 9999 FEW020 11/06 Q1019 W (280°) 12.7mph 11°C 6°C
12/01/19 16:50 EGMC 121650Z 28012KT 9999 FEW020 09/04 Q1018 W (280°) 13.8mph 9°C 4°C
12/01/19 15:50 EGMC 121550Z 28015KT 9999 FEW020 09/06 Q1018 W (280°) 17.3mph 9°C 6°C
12/01/19 15:20 EGMC 121520Z 28013KT 9999 FEW020 09/06 Q1019 W (280°) 15.0mph 9°C 6°C
12/01/19 14:50 EGMC 121450Z 28011KT 260V320 9999 FEW015 SCT030 09/06 Q1019 W (280°) 12.7mph 9°C 6°C
12/01/19 14:20 EGMC 121420Z 28012KT 9999 FEW018 SCT027 09/06 Q1019 W (280°) 13.8mph 9°C 6°C
12/01/19 13:50 EGMC 121350Z 28013KT 9999 SCT018 09/06 Q1019 W (280°) 15.0mph 9°C 6°C
12/01/19 13:20 EGMC 121320Z 27011KT 9999 FEW012 SCT034 09/06 Q1020 W (270°) 12.7mph 9°C 6°C
12/01/19 12:20 EGMC 121220Z 27014KT 9999 SCT016 BKN018 08/05 Q1020 W (270°) 16.1mph 8°C 5°C
12/01/19 11:50 EGMC 121150Z 27015KT 9999 FEW010 BKN021 09/06 Q1021 W (270°) 17.3mph 9°C 6°C
12/01/19 10:50 EGMC 121050Z 25013KT 9999 FEW019 09/06 Q1021 WSW (250°) 15.0mph 9°C 6°C
12/01/19 10:20 EGMC 121020Z 25016KT 9999 FEW018 09/06 Q1022 WSW (250°) 18.4mph 9°C 6°C
12/01/19 09:50 EGMC 120950Z 25016KT 9999 FEW013 BKN018 08/05 Q1022 WSW (250°) 18.4mph 8°C 5°C
12/01/19 09:20 EGMC 120920Z 25013KT 9999 FEW019 SCT026 09/06 Q1022 WSW (250°) 15.0mph 9°C 6°C
12/01/19 08:50 EGMC 120850Z 25012KT 9999 FEW019 SCT042 08/05 Q1022 WSW (250°) 13.8mph 8°C 5°C
12/01/19 08:20 EGMC 120820Z 24013KT 9999 BKN020 11/05 Q1022 WSW (240°) 15.0mph 11°C 5°C
12/01/19 07:50 EGMC 120750Z 24011KT 9999 BKN022 08/05 Q1023 WSW (240°) 12.7mph 8°C 5°C
12/01/19 07:20 EGMC 120720Z 24012KT 9999 BKN023 08/04 Q1023 WSW (240°) 13.8mph 8°C 4°C
12/01/19 06:50 EGMC 120650Z 25011KT 9999 BKN021 08/04 Q1023 WSW (250°) 12.7mph 8°C 4°C
12/01/19 06:20 EGMC 120620Z 24012KT 9999 BKN020 08/04 Q1023 WSW (240°) 13.8mph 8°C 4°C